Time;durP1;ratioP1;P1;durP2;ratioP2;P2;SDS_P1;SDS_P2;PMS_P1;PMS_P2;Temp;Humidity;BMP_temperature;BMP_pressure;BME280_temperature;BME280_humidity;BME280_pressure;Samples;Min_cycle;Max_cycle;Signal;HPM_P1;HPM_P2
2022/11/02 00:01:29;;;;;;;;;;;;;;;11.72;100.00;99333.20;1755440;79;20105;-55
2022/11/02 00:03:55;;;;;;;;;;;;;;;11.76;100.00;99334.70;1752086;81;20430;-52
2022/11/02 00:06:22;;;;;;;;;;;;;;;11.77;100.00;99340.36;1754803;79;20507;-51
2022/11/02 00:08:48;;;;;;;;;;;;;;;11.79;100.00;99338.48;1757416;80;20455;-49
2022/11/02 00:11:15;;;;;;;;;;;;;;;11.81;100.00;99341.03;1757054;79;20159;-46
2022/11/02 00:13:41;;;;;;;;;;;;;;;11.83;100.00;99345.73;1758945;80;20104;-51
2022/11/02 00:16:10;;;;;;;;;;;;;;;11.83;100.00;99348.38;1756125;80;20112;-48
2022/11/02 00:18:38;;;;;;;;;;;;;;;11.84;100.00;99347.41;1762179;81;20112;-48
2022/11/02 00:21:04;;;;;;;;;;;;;;;11.84;100.00;99352.68;1760735;81;20132;-53
2022/11/02 00:23:31;;;;;;;;;;;;;;;11.85;100.00;99343.38;1772105;80;20105;-50
2022/11/02 00:26:00;;;;;;;;;;;;;;;11.86;100.00;99347.72;1761486;79;20097;-51
2022/11/02 00:28:27;;;;;;;;;;;;;;;11.88;100.00;99352.42;1751122;81;20113;-45
2022/11/02 00:30:53;;;;;;;;;;;;;;;11.92;100.00;99349.64;1759432;80;20107;-54
2022/11/02 00:33:20;;;;;;;;;;;;;;;11.94;100.00;99351.23;1763861;80;20179;-49
2022/11/02 00:35:46;;;;;;;;;;;;;;;11.98;100.00;99351.91;1762049;79;20140;-52
2022/11/02 00:38:13;;;;;;;;;;;;;;;11.97;100.00;99354.14;1762467;81;20113;-44
2022/11/02 00:40:40;;;;;;;;;;;;;;;11.97;100.00;99356.33;1762001;80;20466;-52
2022/11/02 00:43:06;;;;;;;;;;;;;;;11.97;100.00;99353.70;1752967;81;20124;-53
2022/11/02 00:45:33;;;;;;;;;;;;;;;11.97;100.00;99356.78;1758166;80;20104;-51
2022/11/02 00:48:00;;;;;;;;;;;;;;;11.99;100.00;99361.03;1757892;82;20127;-47
2022/11/02 00:50:26;;;;;;;;;;;;;;;12.01;100.00;99359.16;1758614;79;20400;-55
2022/11/02 00:52:53;;;;;;;;;;;;;;;12.06;100.00;99362.81;1760486;80;20105;-53
2022/11/02 00:55:20;;;;;;;;;;;;;;;12.06;100.00;99361.49;1757270;81;20128;-50
2022/11/02 00:57:47;;;;;;;;;;;;;;;12.03;100.00;99361.22;1764179;81;20496;-52
2022/11/02 01:00:14;;;;;;;;;;;;;;;11.99;100.00;99357.53;1763844;79;20409;-57
2022/11/02 01:02:41;;;;;;;;;;;;;;;11.96;100.00;99359.89;1758904;79;20105;-48
2022/11/02 01:05:08;;;;;;;;;;;;;;;11.96;100.00;99357.26;1772041;80;20510;-45
2022/11/02 01:07:36;;;;;;;;;;;;;;;11.93;100.00;99356.59;1764235;80;20112;-50
2022/11/02 01:10:04;;;;;;;;;;;;;;;11.96;100.00;99361.21;1755776;81;20132;-55
2022/11/02 01:12:31;;;;;;;;;;;;;;;11.98;100.00;99361.13;1758610;80;20112;-57
2022/11/02 01:14:57;;;;;;;;;;;;;;;11.97;100.00;99363.37;1757928;81;20140;-52
2022/11/02 01:17:24;;;;;;;;;;;;;;;11.96;100.00;99357.26;1759266;81;20096;-51
2022/11/02 01:19:51;;;;;;;;;;;;;;;11.95;100.00;99362.62;1758986;80;20110;-56
2022/11/02 01:22:17;;;;;;;;;;;;;;;11.94;100.00;99357.83;1764538;81;20179;-50
2022/11/02 01:24:44;;;;;;;;;;;;;;;11.96;100.00;99360.37;1766105;80;20116;-55
2022/11/02 01:27:10;;;;;;;;;;;;;;;11.96;100.00;99366.96;1755027;81;20132;-56
2022/11/02 01:29:37;;;;;;;;;;;;;;;11.95;100.00;99361.30;1759011;80;20194;-45
2022/11/02 01:32:04;;;;;;;;;;;;;;;11.99;100.00;99364.12;1753607;82;20105;-53
2022/11/02 01:34:30;;;;;;;;;;;;;;;11.99;100.00;99367.63;1761026;81;20103;-52
2022/11/02 01:36:57;;;;;;;;;;;;;;;12.00;100.00;99375.89;1763818;80;20104;-55
2022/11/02 01:39:23;;;;;;;;;;;;;;;11.99;100.00;99372.03;1764176;80;20175;-46
2022/11/02 01:41:54;;;;;;;;;;;;;;;11.97;100.00;99368.64;1760686;80;20441;-57
2022/11/02 01:44:32;;;;;;;;;;;;;;;12.00;100.00;99365.35;1763129;81;20101;-52
2022/11/02 01:47:13;;;;;;;;;;;;;;;11.98;100.00;99363.76;1758718;81;20156;-53
2022/11/02 01:49:42;;;;;;;;;;;;;;;11.98;100.00;99363.76;1767160;80;20183;-53
2022/11/02 01:52:12;;;;;;;;;;;;;;;11.97;100.00;99360.73;1761510;79;20439;-46
2022/11/02 01:54:45;;;;;;;;;;;;;;;11.99;100.00;99366.75;1764705;79;20112;-53
2022/11/02 01:57:14;;;;;;;;;;;;;;;12.00;100.00;99371.94;1769007;80;20136;-51
2022/11/02 01:59:44;;;;;;;;;;;;;;;12.03;100.00;99370.92;1757271;80;20100;-46
2022/11/02 02:02:14;;;;;;;;;;;;;;;12.06;100.00;99372.04;1764594;81;20109;-49
2022/11/02 02:04:42;;;;;;;;;;;;;;;12.09;100.00;99367.91;1762070;79;20128;-50
2022/11/02 02:07:10;;;;;;;;;;;;;;;12.12;100.00;99369.53;1760938;79;20521;-49
2022/11/02 02:09:37;;;;;;;;;;;;;;;12.14;100.00;99368.48;1763946;79;20088;-44
2022/11/02 02:12:05;;;;;;;;;;;;;;;12.13;100.00;99365.45;1758338;80;20433;-52
2022/11/02 02:14:31;;;;;;;;;;;;;;;12.14;100.00;99369.80;1756027;79;20136;-52
2022/11/02 02:17:30;;;;;;;;;;;;;;;12.15;100.00;99368.87;1743282;81;20109;-46
2022/11/02 02:20:12;;;;;;;;;;;;;;;12.21;100.00;99376.87;1766527;80;20536;-49
2022/11/02 02:22:55;;;;;;;;;;;;;;;12.23;100.00;99380.27;1769559;80;20112;-49
2022/11/02 02:25:40;;;;;;;;;;;;;;;12.25;100.00;99375.27;1753867;81;20101;-50
2022/11/02 02:28:34;;;;;;;;;;;;;;;12.26;100.00;99373.02;1760664;81;20145;-44
2022/11/02 02:31:10;;;;;;;;;;;;;;;12.27;100.00;99377.33;1764255;80;20104;-47
2022/11/02 02:33:52;;;;;;;;;;;;;;;12.31;100.00;99372.72;1757560;81;20105;-48
2022/11/02 02:36:40;;;;;;;;;;;;;;;12.35;100.00;99369.42;1758796;80;20120;-50
2022/11/02 02:39:10;;;;;;;;;;;;;;;12.38;100.00;99362.66;1757646;80;20136;-50
2022/11/02 02:41:46;;;;;;;;;;;;;;;12.42;100.00;99364.16;1755771;79;20410;-49
2022/11/02 02:44:21;;;;;;;;;;;;;;;12.44;100.00;99359.18;1754975;79;20148;-49
2022/11/02 02:46:54;;;;;;;;;;;;;;;12.42;100.00;99366.31;1757335;79;20108;-52
2022/11/02 02:49:30;;;;;;;;;;;;;;;12.42;100.00;99370.27;1756022;79;20112;-51
2022/11/02 02:51:57;;;;;;;;;;;;;;;12.42;100.00;99371.58;1761095;81;20962;-44
2022/11/02 02:54:27;;;;;;;;;;;;;;;12.42;100.00;99381.30;1753085;79;20141;-51
2022/11/02 02:56:59;;;;;;;;;;;;;;;12.40;100.00;99376.59;1757014;81;21107;-48
2022/11/02 02:59:35;;;;;;;;;;;;;;;12.41;100.00;99382.25;1761011;80;20132;-49
2022/11/02 03:02:05;;;;;;;;;;;;;;;12.45;100.00;99391.19;1769688;80;20112;-52
2022/11/02 03:04:32;;;;;;;;;;;;;;;12.45;100.00;99392.50;1769022;80;20437;-48
2022/11/02 03:07:00;;;;;;;;;;;;;;;12.47;100.00;99392.41;1753215;82;20629;-49
2022/11/02 03:09:31;;;;;;;;;;;;;;;12.48;100.00;99400.72;1756414;80;20103;-53
2022/11/02 03:12:01;;;;;;;;;;;;;;;12.51;100.00;99403.62;1764389;79;20108;-49
2022/11/02 03:14:43;;;;;;;;;;;;;;;12.47;100.00;99399.02;1771124;79;20132;-46
2022/11/02 03:17:18;;;;;;;;;;;;;;;12.48;100.00;99401.56;1759785;80;20148;-51
2022/11/02 03:19:51;;;;;;;;;;;;;;;12.50;100.00;99401.47;1758350;79;20132;-49
2022/11/02 03:22:24;;;;;;;;;;;;;;;12.46;100.00;99405.22;1756187;80;20397;-49
2022/11/02 03:24:59;;;;;;;;;;;;;;;12.43;100.00;99405.42;1751284;80;20160;-52
2022/11/02 03:27:38;;;;;;;;;;;;;;;12.45;100.00;99407.49;1753791;80;20113;-55
2022/11/02 03:30:09;;;;;;;;;;;;;;;12.41;100.00;99408.63;1754701;81;20432;-48
2022/11/02 03:32:41;;;;;;;;;;;;;;;12.45;100.00;99403.53;1767027;81;20111;-47
2022/11/02 03:35:11;;;;;;;;;;;;;;;12.46;100.00;99409.17;1757149;79;20136;-53
2022/11/02 03:37:54;;;;;;;;;;;;;;;12.47;100.00;99406.92;1761686;79;20416;-49
2022/11/02 03:40:27;;;;;;;;;;;;;;;12.45;100.00;99407.02;1767943;80;20097;-50
2022/11/02 03:42:55;;;;;;;;;;;;;;;12.46;100.00;99410.04;1765584;80;20113;-52
2022/11/02 03:45:25;;;;;;;;;;;;;;;12.47;100.00;99409.56;1756285;80;20445;-51
2022/11/02 03:48:00;;;;;;;;;;;;;;;12.45;100.00;99404.38;1758186;80;20093;-51
2022/11/02 03:50:27;;;;;;;;;;;;;;;12.43;100.00;99411.53;1753807;80;20104;-56
2022/11/02 03:52:57;;;;;;;;;;;;;;;12.44;100.00;99401.83;1760041;80;20107;-47
2022/11/02 03:55:27;;;;;;;;;;;;;;;12.39;100.00;99407.88;1756880;80;20100;-48
2022/11/02 03:57:55;;;;;;;;;;;;;;;12.45;100.00;99414.09;1764875;80;20113;-52
2022/11/02 04:00:23;;;;;;;;;;;;;;;12.47;100.00;99416.16;1759504;80;20105;-49
2022/11/02 04:02:56;;;;;;;;;;;;;;;12.50;100.00;99415.98;1752650;79;20136;-51
2022/11/02 04:05:28;;;;;;;;;;;;;;;12.54;100.00;99410.05;1759260;79;20109;-53
2022/11/02 04:14:36;;;;;;;;;;;;;;;12.57;100.00;99422.58;1760381;79;20432;-46
2022/11/02 04:15:54;;;;;;;;;;;;;;;12.62;100.00;99421.80;1765000;81;20136;-53
2022/11/02 04:21:05;;;;;;;;;;;;;;;12.62;100.00;99427.07;1754427;81;20132;-57
2022/11/02 04:26:17;;;;;;;;;;;;;;;12.61;100.00;99429.83;1755128;79;20116;-48
2022/11/02 04:28:43;;;;;;;;;;;;;;;12.56;100.00;99427.45;1757006;79;20112;-53
2022/11/02 04:31:11;;;;;;;;;;;;;;;12.61;100.00;99428.03;1757633;80;20128;-49
2022/11/02 04:33:39;;;;;;;;;;;;;;;12.59;100.00;99427.28;1764797;79;20113;-54
2022/11/02 04:36:07;;;;;;;;;;;;;;;12.59;100.00;99425.96;1762022;80;20398;-48
2022/11/02 04:38:39;;;;;;;;;;;;;;;12.57;100.00;99426.98;1764709;80;20453;-52
2022/11/02 04:43:56;;;;;;;;;;;;;;;12.57;100.00;99427.84;1749358;81;20450;-52
2022/11/02 04:46:24;;;;;;;;;;;;;;;12.58;100.00;99424.25;1756168;80;20112;-47
2022/11/02 04:48:51;;;;;;;;;;;;;;;12.61;100.00;99430.66;1756195;79;20112;-52
2022/11/02 04:51:19;;;;;;;;;;;;;;;12.60;100.00;99428.95;1759713;81;20104;-49
2022/11/02 04:53:47;;;;;;;;;;;;;;;12.57;100.00;99431.81;1761731;80;20116;-46
2022/11/02 04:56:13;;;;;;;;;;;;;;;12.60;100.00;99430.28;1761527;81;20109;-44
2022/11/02 04:58:40;;;;;;;;;;;;;;;12.57;100.00;99422.58;1758366;80;20112;-47
2022/11/02 05:01:10;;;;;;;;;;;;;;;12.58;100.00;99425.57;1752419;81;20171;-54
2022/11/02 05:03:36;;;;;;;;;;;;;;;12.58;100.00;99426.89;1756388;81;20112;-51
2022/11/02 05:06:03;;;;;;;;;;;;;;;12.56;100.00;99434.05;1755798;79;20101;-52
2022/11/02 05:08:29;;;;;;;;;;;;;;;12.62;100.00;99438.10;1754868;81;20113;-53
2022/11/02 05:10:57;;;;;;;;;;;;;;;12.60;100.00;99440.83;1756456;80;20132;-53
2022/11/02 05:13:25;;;;;;;;;;;;;;;12.61;100.00;99437.27;1756769;80;20100;-49
2022/11/02 05:15:56;;;;;;;;;;;;;;;12.59;100.00;99440.47;1755935;82;20398;-47
2022/11/02 05:18:24;;;;;;;;;;;;;;;12.58;100.00;99440.08;1758738;80;20137;-52
2022/11/02 05:20:51;;;;;;;;;;;;;;;12.59;100.00;99440.95;1753127;82;20113;-47
2022/11/02 05:23:19;;;;;;;;;;;;;;;12.59;100.00;99445.75;1753154;81;20528;-47
2022/11/02 05:25:56;;;;;;;;;;;;;;;12.56;100.00;99442.45;1753799;81;20196;-51
2022/11/02 05:28:23;;;;;;;;;;;;;;;12.57;100.00;99452.04;1753524;81;20124;-49
2022/11/02 05:30:50;;;;;;;;;;;;;;;12.60;100.00;99454.50;1761832;80;20112;-50
2022/11/02 05:33:17;;;;;;;;;;;;;;;12.59;100.00;99454.14;1757817;80;20361;-48
2022/11/02 05:35:44;;;;;;;;;;;;;;;12.60;100.00;99452.70;1751676;81;20105;-49
2022/11/02 05:38:10;;;;;;;;;;;;;;;12.57;100.00;99452.04;1759244;80;20120;-57
2022/11/02 05:40:39;;;;;;;;;;;;;;;12.59;100.00;99459.42;1764112;79;20135;-48
2022/11/02 05:43:07;;;;;;;;;;;;;;;12.59;100.00;99458.94;1756873;79;20120;-51
2022/11/02 05:45:34;;;;;;;;;;;;;;;12.55;100.00;99465.34;1756582;81;20207;-47
2022/11/02 05:48:02;;;;;;;;;;;;;;;12.53;100.00;99464.56;1754182;80;20092;-49
2022/11/02 05:50:29;;;;;;;;;;;;;;;12.53;100.00;99466.37;1762842;80;20136;-51
2022/11/02 05:52:56;;;;;;;;;;;;;;;12.52;100.00;99464.69;1761201;80;20105;-53
2022/11/02 05:55:23;;;;;;;;;;;;;;;12.50;100.00;99468.73;1759511;80;20108;-49
2022/11/02 05:57:54;;;;;;;;;;;;;;;12.51;100.00;99467.77;1760799;81;20103;-47
2022/11/02 06:00:23;;;;;;;;;;;;;;;12.46;100.00;99469.39;1748645;82;20097;-49
2022/11/02 06:02:56;;;;;;;;;;;;;;;12.42;100.00;99475.77;1758863;80;20417;-51
2022/11/02 06:05:23;;;;;;;;;;;;;;;12.38;100.00;99474.25;1760854;80;20408;-53
2022/11/02 06:07:50;;;;;;;;;;;;;;;12.39;100.00;99479.09;1762986;79;20105;-47
2022/11/02 06:10:17;;;;;;;;;;;;;;;12.38;100.00;99479.53;1754169;80;20131;-49
2022/11/02 06:12:43;;;;;;;;;;;;;;;12.41;100.00;99484.63;1767622;80;20125;-52
2022/11/02 06:15:10;;;;;;;;;;;;;;;12.37;100.00;99478.30;1767135;80;20425;-47
2022/11/02 06:17:38;;;;;;;;;;;;;;;12.41;100.00;99485.11;1757605;81;20508;-52
2022/11/02 06:20:06;;;;;;;;;;;;;;;12.40;100.00;99480.77;1757134;81;20360;-45
2022/11/02 06:22:40;;;;;;;;;;;;;;;12.41;100.00;99485.11;1758203;79;20104;-56
2022/11/02 06:25:07;;;;;;;;;;;;;;;12.34;100.00;99477.19;1761272;80;20100;-53
2022/11/02 06:27:35;;;;;;;;;;;;;;;12.31;100.00;99483.47;1760109;80;20104;-52
2022/11/02 06:30:02;;;;;;;;;;;;;;;12.33;100.00;99489.98;1758933;81;20128;-49
2022/11/02 06:32:29;;;;;;;;;;;;;;;12.33;100.00;99486.86;1758656;81;20104;-45
2022/11/02 06:34:56;;;;;;;;;;;;;;;12.34;100.00;99485.94;1758767;80;20104;-54
2022/11/02 06:37:22;;;;;;;;;;;;;;;12.37;100.00;99490.17;1757171;80;20108;-54
2022/11/02 06:39:49;;;;;;;;;;;;;;;12.31;100.00;99487.91;1753192;79;20112;-55
2022/11/02 06:42:15;;;;;;;;;;;;;;;12.34;100.00;99492.53;1752834;79;20100;-51
2022/11/02 06:44:42;;;;;;;;;;;;;;;12.32;100.00;99497.05;1758102;81;20115;-52
2022/11/02 06:47:08;;;;;;;;;;;;;;;12.32;100.00;99500.17;1750205;81;20105;-47
2022/11/02 06:49:35;;;;;;;;;;;;;;;12.34;100.00;99502.23;1760266;81;20135;-53
2022/11/02 06:52:02;;;;;;;;;;;;;;;12.34;100.00;99498.28;1760807;81;20132;-53
2022/11/02 06:54:28;;;;;;;;;;;;;;;12.38;100.00;99507.70;1766128;81;20129;-52
2022/11/02 06:56:55;;;;;;;;;;;;;;;12.37;100.00;99503.35;1768668;80;20127;-52
2022/11/02 06:59:21;;;;;;;;;;;;;;;12.39;100.00;99496.23;1757423;80;20100;-52
2022/11/02 07:01:52;;;;;;;;;;;;;;;12.38;100.00;99501.11;1757649;80;20425;-50
2022/11/02 07:04:16;;;;;;;;;;;;;;;12.38;100.00;99497.16;1758796;79;20112;-52
2022/11/02 07:06:43;;;;;;;;;;;;;;;12.38;100.00;99505.06;1764363;80;20405;-56
2022/11/02 07:09:09;;;;;;;;;;;;;;;12.36;100.00;99498.56;1755419;79;20412;-47
2022/11/02 07:11:36;;;;;;;;;;;;;;;12.33;100.00;99505.33;1765938;80;20393;-49
2022/11/02 07:14:02;;;;;;;;;;;;;;;12.38;100.00;99506.38;1757172;80;20450;-46
2022/11/02 07:16:29;;;;;;;;;;;;;;;12.39;100.00;99501.02;1774561;80;20402;-49
2022/11/02 07:18:56;;;;;;;;;;;;;;;12.38;100.00;99505.06;1770013;80;20434;-49
2022/11/02 07:21:23;;;;;;;;;;;;;;;12.36;100.00;99504.31;1770656;80;20393;-51
2022/11/02 07:23:49;;;;;;;;;;;;;;;12.43;100.00;99495.09;1761085;80;20422;-52
2022/11/02 07:26:16;;;;;;;;;;;;;;;12.43;100.00;99503.01;1768633;80;20441;-53
2022/11/02 07:28:44;;;;;;;;;;;;;;;12.42;100.00;99508.73;1772431;81;20420;-53
2022/11/02 07:31:11;;;;;;;;;;;;;;;12.42;100.00;99514.00;1771129;80;20113;-47
2022/11/02 07:33:37;;;;;;;;;;;;;;;12.46;100.00;99510.27;1770818;80;20492;-51
2022/11/02 07:36:05;;;;;;;;;;;;;;;12.51;100.00;99508.66;1769758;80;20161;-54
2022/11/02 07:38:31;;;;;;;;;;;;;;;12.47;100.00;99504.52;1771681;80;20433;-51
2022/11/02 07:40:58;;;;;;;;;;;;;;;12.51;100.00;99504.70;1765656;81;20414;-47
2022/11/02 07:43:25;;;;;;;;;;;;;;;12.54;100.00;99504.53;1779195;80;20385;-47
2022/11/02 07:45:51;;;;;;;;;;;;;;;12.54;100.00;99508.48;1780378;81;20112;-50
2022/11/02 07:48:18;;;;;;;;;;;;;;;12.51;100.00;99505.18;1773491;80;20117;-52
2022/11/02 07:50:44;;;;;;;;;;;;;;;12.53;100.00;99513.37;1770842;80;20128;-54
2022/11/02 07:53:11;;;;;;;;;;;;;;;12.58;100.00;99506.03;1750011;80;20418;-49
2022/11/02 07:55:38;;;;;;;;;;;;;;;12.59;100.00;99505.11;1771734;80;20421;-51
2022/11/02 07:58:08;;;;;;;;;;;;;;;12.66;100.00;99510.84;1768415;80;20113;-50
2022/11/02 08:00:37;;;;;;;;;;;;;;;12.61;100.00;99508.50;1752784;80;20496;-51
2022/11/02 08:03:05;;;;;;;;;;;;;;;12.66;100.00;99505.56;1758730;80;20183;-42
2022/11/02 08:05:37;;;;;;;;;;;;;;;12.64;100.00;99505.68;1769258;80;20136;-52
2022/11/02 08:08:07;;;;;;;;;;;;;;;12.63;99.85;99501.33;1766261;80;20425;-53
2022/11/02 08:10:34;;;;;;;;;;;;;;;12.67;99.81;99494.92;1753102;80;20127;-50
2022/11/02 08:13:01;;;;;;;;;;;;;;;12.75;99.76;99506.80;1772589;80;20426;-48
2022/11/02 08:15:28;;;;;;;;;;;;;;;12.82;99.77;99498.44;1772631;81;20100;-43
2022/11/02 08:18:06;;;;;;;;;;;;;;;12.90;99.63;99499.73;1768387;80;20144;-49
2022/11/02 08:20:34;;;;;;;;;;;;;;;12.92;98.90;99496.07;1767319;80;20133;-52
2022/11/02 08:23:02;;;;;;;;;;;;;;;12.94;98.04;99500.78;1771912;80;20112;-50
2022/11/02 08:25:28;;;;;;;;;;;;;;;13.00;98.64;99493.79;1769262;80;20113;-50
2022/11/02 08:27:57;;;;;;;;;;;;;;;13.10;99.20;99494.53;1769054;80;20096;-53
2022/11/02 08:30:25;;;;;;;;;;;;;;;13.15;98.20;99489.81;1770816;80;20112;-56
2022/11/02 08:32:51;;;;;;;;;;;;;;;13.19;97.65;99491.34;1764846;80;20136;-52
2022/11/02 08:35:18;;;;;;;;;;;;;;;13.24;97.31;99483.95;1769495;80;20133;-50
2022/11/02 08:37:44;;;;;;;;;;;;;;;13.46;96.03;99494.03;1762218;80;20113;-50
2022/11/02 08:40:11;;;;;;;;;;;;;;;13.62;97.14;99495.22;1760941;80;20146;-45
2022/11/02 08:42:38;;;;;;;;;;;;;;;13.66;95.89;99503.34;1771850;80;20104;-53
2022/11/02 08:45:06;;;;;;;;;;;;;;;13.66;95.09;99497.19;1754237;80;20113;-48
2022/11/02 08:47:32;;;;;;;;;;;;;;;13.68;94.65;99502.77;1766940;81;20100;-48
2022/11/02 08:49:59;;;;;;;;;;;;;;;13.68;94.72;99502.77;1767994;80;20113;-50
2022/11/02 08:52:25;;;;;;;;;;;;;;;13.57;94.05;99506.11;1768793;80;20108;-47
2022/11/02 08:54:52;;;;;;;;;;;;;;;13.56;94.41;99503.08;1769259;80;20141;-51
2022/11/02 08:57:18;;;;;;;;;;;;;;;13.54;94.17;99505.45;1779174;80;20135;-52
2022/11/02 08:59:45;;;;;;;;;;;;;;;13.54;94.44;99508.09;1787806;80;20145;-53
2022/11/02 09:02:11;;;;;;;;;;;;;;;13.51;94.26;99503.00;1785221;80;20134;-49
2022/11/02 09:04:38;;;;;;;;;;;;;;;13.54;94.78;99509.41;1783731;80;20126;-54
2022/11/02 09:07:05;;;;;;;;;;;;;;;13.46;93.91;99505.08;1789825;80;20213;-53
2022/11/02 09:09:31;;;;;;;;;;;;;;;13.50;94.21;99497.33;1787664;80;20455;-48
2022/11/02 09:11:58;;;;;;;;;;;;;;;13.49;94.49;99495.65;1791014;80;20127;-49
2022/11/02 09:14:24;;;;;;;;;;;;;;;13.47;94.09;99487.81;1785969;80;20187;-54
2022/11/02 09:16:51;;;;;;;;;;;;;;;13.43;93.62;99496.41;1786119;80;20127;-53
2022/11/02 09:19:17;;;;;;;;;;;;;;;13.45;93.53;99494.99;1787185;79;20131;-50
2022/11/02 09:21:44;;;;;;;;;;;;;;;13.41;93.22;99498.30;1787432;80;20134;-50
2022/11/02 09:24:11;;;;;;;;;;;;;;;13.31;92.93;99498.50;1783862;80;20119;-51
2022/11/02 09:26:37;;;;;;;;;;;;;;;13.30;93.54;99495.92;1783488;80;20204;-49
2022/11/02 09:29:04;;;;;;;;;;;;;;;13.25;94.06;99498.39;1786283;80;20126;-47
2022/11/02 09:31:30;;;;;;;;;;;;;;;13.18;93.99;99501.52;1786693;80;20123;-54
2022/11/02 09:33:57;;;;;;;;;;;;;;;13.14;94.06;99492.10;1763004;80;20101;-54
2022/11/02 09:36:23;;;;;;;;;;;;;;;13.12;93.93;99496.63;1764824;80;20662;-51
2022/11/02 09:38:50;;;;;;;;;;;;;;;13.08;93.82;99489.83;1760720;80;20124;-49
2022/11/02 09:41:32;;;;;;;;;;;;;;;13.14;94.00;99490.30;1773894;80;20410;-55
2022/11/02 09:44:05;;;;;;;;;;;;;;;13.17;93.86;99494.53;1772150;80;20187;-58
2022/11/02 09:46:40;;;;;;;;;;;;;;;13.16;93.39;99502.93;1742046;80;20093;-50
2022/11/02 09:49:15;;;;;;;;;;;;;;;13.19;93.71;99498.79;1754732;80;20129;-46
2022/11/02 09:51:45;;;;;;;;;;;;;;;13.19;93.61;99501.91;1754750;80;20129;-50
2022/11/02 09:54:39;;;;;;;;;;;;;;;13.10;93.55;99507.73;1754103;81;20442;-49
2022/11/02 09:57:26;;;;;;;;;;;;;;;13.19;94.06;99508.52;1745317;81;20161;-45
2022/11/02 09:59:53;;;;;;;;;;;;;;;13.10;93.82;99508.61;1751682;81;20157;-48
2022/11/02 10:02:36;;;;;;;;;;;;;;;13.01;93.52;99503.42;1752055;81;20136;-48
2022/11/02 10:05:12;;;;;;;;;;;;;;;13.04;93.71;99503.23;1753097;80;20128;-46
2022/11/02 10:08:04;;;;;;;;;;;;;;;13.09;94.07;99511.34;1776669;79;20123;-55
2022/11/02 10:10:33;;;;;;;;;;;;;;;13.05;94.02;99511.52;1754701;79;20104;-44
2022/11/02 10:13:13;;;;;;;;;;;;;;;13.09;94.07;99502.09;1785546;79;20436;-48
2022/11/02 10:15:49;;;;;;;;;;;;;;;13.20;93.85;99507.55;1769058;80;20406;-45
2022/11/02 10:18:24;;;;;;;;;;;;;;;13.31;93.81;99510.88;1761520;80;20426;-54
2022/11/02 10:20:56;;;;;;;;;;;;;;;13.32;92.83;99510.78;1765810;80;20172;-48
2022/11/02 10:23:29;;;;;;;;;;;;;;;13.43;92.65;99505.66;1775340;80;20139;-50
2022/11/02 10:25:58;;;;;;;;;;;;;;;13.51;92.69;99504.32;1774542;79;20135;-50
2022/11/02 10:28:36;;;;;;;;;;;;;;;13.61;91.84;99503.63;1755424;79;20112;-49
2022/11/02 10:31:05;;;;;;;;;;;;;;;13.66;91.02;99496.74;1773019;80;20113;-51
2022/11/02 10:33:32;;;;;;;;;;;;;;;13.78;89.93;99497.23;1776507;80;20460;-46
2022/11/02 10:36:14;;;;;;;;;;;;;;;13.76;88.97;99500.46;1771387;80;20398;-47
2022/11/02 10:39:02;;;;;;;;;;;;;;;13.86;89.31;99494.57;1772860;80;20491;-53
2022/11/02 10:41:42;;;;;;;;;;;;;;;13.83;87.35;99496.95;1770715;80;20516;-52
2022/11/02 10:44:18;;;;;;;;;;;;;;;13.77;86.57;99502.17;1746179;80;20104;-47
2022/11/02 10:47:05;;;;;;;;;;;;;;;13.80;87.13;99500.63;1775880;80;20093;-49
2022/11/02 10:49:44;;;;;;;;;;;;;;;13.78;86.67;99498.56;1769460;80;20147;-49
2022/11/02 10:52:13;;;;;;;;;;;;;;;13.71;85.62;99497.27;1765232;80;20105;-47
2022/11/02 10:54:40;;;;;;;;;;;;;;;13.70;84.88;99495.59;1766888;80;20141;-52
2022/11/02 10:57:14;;;;;;;;;;;;;;;13.78;86.28;99486.67;1771879;80;20414;-51
2022/11/02 10:59:40;;;;;;;;;;;;;;;13.80;86.06;99491.86;1774186;80;20136;-49
2022/11/02 11:02:16;;;;;;;;;;;;;;;13.73;82.16;99488.76;1773388;80;20139;-49
2022/11/02 11:04:41;;;;;;;;;;;;;;;13.77;81.65;99496.88;1772637;80;20096;-48
2022/11/02 11:07:21;;;;;;;;;;;;;;;13.71;79.84;99496.42;1776221;80;20159;-46
2022/11/02 11:09:50;;;;;;;;;;;;;;;13.81;82.75;99499.70;1755322;80;20135;-54
2022/11/02 11:12:21;;;;;;;;;;;;;;;13.77;81.07;99492.92;1765562;80;20155;-46
2022/11/02 11:14:53;;;;;;;;;;;;;;;13.71;78.06;99490.66;1748294;80;20113;-47
2022/11/02 11:17:23;;;;;;;;;;;;;;;13.78;79.12;99494.59;1766651;80;20113;-48
2022/11/02 11:19:51;;;;;;;;;;;;;;;13.80;78.79;99484.77;1752303;80;20132;-49
2022/11/02 11:22:34;;;;;;;;;;;;;;;13.88;81.64;99484.74;1763118;80;20129;-52
2022/11/02 11:25:21;;;;;;;;;;;;;;;13.89;80.34;99482.48;1779445;79;20127;-53
2022/11/02 11:27:54;;;;;;;;;;;;;;;13.95;82.15;99476.78;1757327;80;20398;-51
2022/11/02 11:30:28;;;;;;;;;;;;;;;13.97;81.60;99477.52;1772504;80;20159;-52
2022/11/02 11:32:55;;;;;;;;;;;;;;;13.92;78.62;99477.84;1760836;80;20157;-50
2022/11/02 11:35:32;;;;;;;;;;;;;;;14.02;80.16;99471.45;1762591;80;20198;-45
2022/11/02 11:38:01;;;;;;;;;;;;;;;14.07;81.30;99470.68;1758931;80;20176;-45
2022/11/02 11:40:31;;;;;;;;;;;;;;;14.02;78.73;99467.49;1761087;80;20455;-54
2022/11/02 11:42:58;;;;;;;;;;;;;;;14.12;79.55;99477.00;1756707;80;20144;-49
2022/11/02 11:45:27;;;;;;;;;;;;;;;14.10;77.82;99470.48;1765761;80;20128;-52
2022/11/02 11:48:03;;;;;;;;;;;;;;;14.12;77.55;99463.30;1776289;80;20117;-45
2022/11/02 11:50:30;;;;;;;;;;;;;;;14.17;79.04;99461.64;1773516;80;20142;-46
2022/11/02 11:53:23;;;;;;;;;;;;;;;14.15;77.61;99459.58;1754820;80;20109;-52
2022/11/02 11:55:52;;;;;;;;;;;;;;;14.15;77.54;99461.77;1750514;80;20129;-50
2022/11/02 11:58:21;;;;;;;;;;;;;;;14.18;77.60;99454.09;1767497;80;20105;-53
2022/11/02 12:01:15;;;;;;;;;;;;;;;14.24;77.36;99452.83;1776733;80;20096;-53
2022/11/02 12:03:59;;;;;;;;;;;;;;;14.29;77.61;99446.76;1741380;81;20137;-44
2022/11/02 12:06:32;;;;;;;;;;;;;;;14.35;79.11;99449.84;1761220;79;20533;-51
2022/11/02 12:09:25;;;;;;;;;;;;;;;14.40;78.61;99458.77;1770558;79;20425;-50
2022/11/02 12:12:32;;;;;;;;;;;;;;;14.47;78.43;99456.08;1784867;80;20114;-49
2022/11/02 12:15:11;;;;;;;;;;;;;;;14.50;76.99;99462.48;1751752;81;20135;-51
2022/11/02 12:18:03;;;;;;;;;;;;;;;14.53;77.61;99452.98;1774856;80;20488;-51
2022/11/02 12:20:44;;;;;;;;;;;;;;;14.51;75.68;99450.93;1764696;80;20129;-52
2022/11/02 12:23:23;;;;;;;;;;;;;;;14.52;75.50;99455.77;1763775;80;20456;-53
2022/11/02 12:26:05;;;;;;;;;;;;;;;14.54;76.76;99461.31;1745517;81;20167;-51
2022/11/02 12:28:44;;;;;;;;;;;;;;;14.56;75.31;99469.98;1760089;79;20129;-53
2022/11/02 12:31:32;;;;;;;;;;;;;;;14.59;75.21;99469.82;1750763;80;20445;-52
2022/11/02 12:34:23;;;;;;;;;;;;;;;14.63;75.43;99463.84;1760469;80;20128;-51
2022/11/02 12:37:13;;;;;;;;;;;;;;;14.67;73.97;99469.28;1770335;80;20112;-53
2022/11/02 12:40:06;;;;;;;;;;;;;;;14.75;74.31;99473.58;1751356;80;20160;-53
2022/11/02 12:42:36;;;;;;;;;;;;;;;14.72;71.96;99463.68;1776085;80;20140;-53
2022/11/02 12:45:07;;;;;;;;;;;;;;;14.82;73.82;99467.36;1765423;80;20128;-53
2022/11/02 12:47:43;;;;;;;;;;;;;;;14.82;73.13;99471.33;1776148;80;20137;-48
2022/11/02 12:50:19;;;;;;;;;;;;;;;14.85;73.33;99464.51;1768622;80;20160;-53
2022/11/02 12:53:08;;;;;;;;;;;;;;;14.86;71.42;99458.72;1775436;80;20390;-52
2022/11/02 12:55:37;;;;;;;;;;;;;;;14.98;71.88;99459.19;1780370;80;20109;-54
2022/11/02 12:58:06;;;;;;;;;;;;;;;15.11;73.21;99449.89;1774297;80;20711;-51
2022/11/02 13:00:35;;;;;;;;;;;;;;;15.18;71.42;99455.12;1767225;81;20108;-53
2022/11/02 13:03:14;;;;;;;;;;;;;;;15.26;69.66;99458.08;1775252;80;20144;-50
2022/11/02 13:05:49;;;;;;;;;;;;;;;16.32;66.99;99466.64;1732026;81;20514;-51
2022/11/02 13:08:18;;;;;;;;;;;;;;;18.74;64.45;99473.70;1774214;80;20141;-52
2022/11/02 13:10:47;;;;;;;;;;;;;;;20.52;60.33;99460.35;1773671;80;20121;-50
2022/11/02 13:13:16;;;;;;;;;;;;;;;21.72;55.47;99469.41;1776878;79;20116;-52